createdAt,value
2022-09-26T00:01:32.307Z,2.70
2022-09-26T00:04:03.446Z,2.88
2022-09-26T00:06:29.948Z,2.55
2022-09-26T00:08:56.948Z,3.05
2022-09-26T00:11:31.992Z,3.22
2022-09-26T00:14:02.664Z,2.80
2022-09-26T00:16:29.144Z,2.88
2022-09-26T00:18:58.937Z,2.65
2022-09-26T00:21:27.198Z,2.53
2022-09-26T00:23:54.427Z,2.92
2022-09-26T00:26:22.400Z,3.53
2022-09-26T00:28:49.672Z,2.80
2022-09-26T00:31:18.974Z,2.60
2022-09-26T00:33:45.820Z,3.00
2022-09-26T00:36:12.156Z,2.38
2022-09-26T00:38:39.317Z,2.20
2022-09-26T00:41:07.141Z,3.13
2022-09-26T00:43:41.733Z,2.45
2022-09-26T00:46:14.045Z,2.55
2022-09-26T00:48:43.299Z,3.03
2022-09-26T00:51:11.024Z,2.23
2022-09-26T00:53:48.940Z,2.30
2022-09-26T00:56:20.840Z,2.80
2022-09-26T00:59:04.037Z,2.50
2022-09-26T01:01:31.114Z,2.70
2022-09-26T01:03:59.041Z,2.57
2022-09-26T01:06:25.774Z,3.15
2022-09-26T01:09:00.784Z,2.65
2022-09-26T01:11:28.957Z,2.78
2022-09-26T01:13:57.018Z,2.92
2022-09-26T01:16:23.867Z,2.40
2022-09-26T01:18:51.373Z,2.60
2022-09-26T01:21:46.710Z,2.83
2022-09-26T01:24:56.705Z,2.70
2022-09-26T01:27:43.865Z,2.67
2022-09-26T01:30:14.171Z,3.10
2022-09-26T01:33:07.502Z,3.10
2022-09-26T01:35:52.304Z,3.15
2022-09-26T01:38:40.570Z,3.88
2022-09-26T01:41:19.069Z,3.70
2022-09-26T01:44:06.517Z,3.00
2022-09-26T01:46:56.814Z,3.25
2022-09-26T01:49:31.342Z,3.15
2022-09-26T01:52:09.824Z,2.80
2022-09-26T01:54:45.492Z,3.10
2022-09-26T01:57:20.984Z,2.80
2022-09-26T01:59:53.270Z,2.55
2022-09-26T02:02:27.322Z,2.72
2022-09-26T02:04:59.892Z,2.38
2022-09-26T02:07:55.113Z,2.47
2022-09-26T02:10:35.940Z,3.03
2022-09-26T02:13:11.445Z,2.88
2022-09-26T02:15:40.408Z,2.90
2022-09-26T02:18:24.196Z,2.40
2022-09-26T02:21:01.168Z,2.50
2022-09-26T02:23:27.641Z,2.70
2022-09-26T02:25:54.306Z,2.67
2022-09-26T02:28:22.108Z,2.80
2022-09-26T02:30:51.184Z,2.30
2022-09-26T02:33:18.085Z,2.30
2022-09-26T02:35:57.348Z,2.20
2022-09-26T02:38:27.246Z,2.03
2022-09-26T02:41:22.467Z,2.05
2022-09-26T02:44:04.069Z,2.00
2022-09-26T02:47:00.489Z,2.50
2022-09-26T02:49:32.762Z,2.10
2022-09-26T02:52:35.328Z,2.22
2022-09-26T02:55:37.948Z,2.03
2022-09-26T02:58:35.868Z,1.65
2022-09-26T03:01:11.199Z,1.95
2022-09-26T03:03:47.634Z,1.67
2022-09-26T03:06:17.861Z,2.17
2022-09-26T03:08:47.721Z,1.90
2022-09-26T03:11:18.467Z,1.80
2022-09-26T03:13:45.793Z,1.80
2022-09-26T03:16:14.229Z,1.80
2022-09-26T03:18:50.076Z,2.08
2022-09-26T03:21:17.424Z,2.05
2022-09-26T03:23:44.040Z,2.10
2022-09-26T03:26:18.369Z,2.10
2022-09-26T03:28:45.126Z,2.13
2022-09-26T03:31:11.564Z,1.77
2022-09-26T03:33:37.903Z,2.25
2022-09-26T03:36:09.445Z,2.20
2022-09-26T03:38:35.810Z,2.13
2022-09-26T03:41:02.629Z,2.20
2022-09-26T03:43:29.942Z,2.20
2022-09-26T03:45:56.429Z,2.00
2022-09-26T03:48:22.866Z,2.10
2022-09-26T03:50:49.287Z,1.80
2022-09-26T03:53:15.620Z,2.10
2022-09-26T03:55:42.044Z,2.17
2022-09-26T03:58:08.477Z,2.17
2022-09-26T04:00:35.002Z,1.83
2022-09-26T04:03:04.288Z,1.98
2022-09-26T04:05:30.969Z,2.07
2022-09-26T04:07:59.081Z,2.30
2022-09-26T04:10:25.441Z,2.05
2022-09-26T04:12:51.788Z,2.20
2022-09-26T04:15:18.178Z,2.15
2022-09-26T04:17:44.551Z,2.30
2022-09-26T04:20:10.914Z,2.13
2022-09-26T04:22:37.328Z,2.50
2022-09-26T04:25:03.904Z,2.53
2022-09-26T04:27:31.153Z,2.45
2022-09-26T04:29:57.514Z,2.50
2022-09-26T04:32:24.782Z,2.40
2022-09-26T04:34:51.214Z,2.30
2022-09-26T04:37:18.349Z,2.63
2022-09-26T04:39:44.709Z,2.47
2022-09-26T04:42:11.049Z,2.47
2022-09-26T04:44:37.414Z,2.25
2022-09-26T04:47:03.822Z,2.10
2022-09-26T04:49:30.991Z,2.10
2022-09-26T04:51:57.329Z,1.88
2022-09-26T04:54:24.008Z,2.20
2022-09-26T04:56:50.363Z,2.08
2022-09-26T04:59:16.745Z,2.30
2022-09-26T05:01:43.175Z,2.10
2022-09-26T05:04:10.025Z,2.00
2022-09-26T05:06:36.385Z,3.40
2022-09-26T05:09:04.154Z,2.25
2022-09-26T05:11:32.422Z,2.00
2022-09-26T05:13:58.787Z,2.10
2022-09-26T05:16:28.261Z,2.10
2022-09-26T05:18:55.900Z,2.67
2022-09-26T05:21:22.532Z,2.38
2022-09-26T05:24:07.184Z,2.45
2022-09-26T05:26:47.438Z,2.03
2022-09-26T05:29:14.171Z,1.73
2022-09-26T05:31:40.744Z,2.17
2022-09-26T05:34:13.136Z,1.80
2022-09-26T05:36:42.888Z,1.90
2022-09-26T05:39:27.764Z,1.98
2022-09-26T05:41:54.550Z,1.98
2022-09-26T05:44:21.118Z,2.10
2022-09-26T05:46:47.549Z,1.90
2022-09-26T05:49:14.815Z,1.95
2022-09-26T05:51:41.372Z,1.90
2022-09-26T05:54:07.714Z,2.08
2022-09-26T05:56:37.315Z,2.03
2022-09-26T05:59:04.386Z,1.73
2022-09-26T06:01:33.638Z,2.05
2022-09-26T06:04:00.123Z,2.33
2022-09-26T06:06:26.599Z,2.35
2022-09-26T06:08:52.956Z,3.33
2022-09-26T06:11:24.934Z,3.35
2022-09-26T06:13:51.306Z,3.03
2022-09-26T06:16:20.933Z,3.05
2022-09-26T06:18:50.567Z,3.53
2022-09-26T06:21:18.803Z,3.07
2022-09-26T06:23:45.702Z,3.13
2022-09-26T06:26:17.968Z,3.40
2022-09-26T06:28:44.423Z,3.47
2022-09-26T06:31:16.683Z,2.70
2022-09-26T06:33:43.214Z,2.60
2022-09-26T06:36:11.489Z,2.75
2022-09-26T06:38:38.711Z,2.50
2022-09-26T06:41:07.301Z,2.08
2022-09-26T06:43:33.917Z,2.13
2022-09-26T06:46:00.612Z,1.90
2022-09-26T06:48:27.327Z,1.80
2022-09-26T06:50:55.820Z,2.38
2022-09-26T06:53:22.668Z,1.60
2022-09-26T06:55:49.473Z,1.65
2022-09-26T06:58:15.949Z,1.60
2022-09-26T07:00:42.379Z,1.30
2022-09-26T07:03:08.850Z,1.10
2022-09-26T07:05:35.351Z,1.30
2022-09-26T07:08:02.603Z,1.10
2022-09-26T07:10:34.613Z,0.90
2022-09-26T07:13:03.944Z,0.98
2022-09-26T07:15:33.475Z,1.10
2022-09-26T07:18:02.642Z,0.70
2022-09-26T07:20:35.857Z,1.13
2022-09-26T07:23:03.454Z,0.70
2022-09-26T07:25:33.401Z,0.70
2022-09-26T07:28:01.018Z,0.70
2022-09-26T07:30:28.252Z,0.70
2022-09-26T07:33:03.607Z,0.65
2022-09-26T07:35:32.155Z,0.90
2022-09-26T07:37:59.321Z,0.80
2022-09-26T07:40:26.451Z,0.50
2022-09-26T07:43:09.520Z,0.60
2022-09-26T07:45:57.978Z,0.60
2022-09-26T07:48:42.764Z,0.60
2022-09-26T07:51:11.891Z,0.70
2022-09-26T07:53:41.196Z,0.70
2022-09-26T07:56:11.001Z,0.50
2022-09-26T07:58:42.237Z,0.60
2022-09-26T08:01:11.336Z,0.90
2022-09-26T08:03:50.145Z,1.00
2022-09-26T08:06:20.753Z,1.95
2022-09-26T08:08:48.157Z,2.30
2022-09-26T08:11:16.709Z,2.03
2022-09-26T08:13:44.447Z,3.47
2022-09-26T08:16:11.777Z,3.30
2022-09-26T08:18:38.248Z,3.70
2022-09-26T08:21:08.202Z,3.42
2022-09-26T08:23:34.816Z,3.30
2022-09-26T08:26:06.934Z,3.70
2022-09-26T08:28:34.677Z,3.10
2022-09-26T08:31:02.989Z,1.90
2022-09-26T08:33:29.691Z,1.50
2022-09-26T08:36:01.958Z,1.80
2022-09-26T08:38:28.315Z,1.60
2022-09-26T08:41:06.891Z,1.60
2022-09-26T08:43:45.321Z,1.67
2022-09-26T08:46:44.346Z,1.85
2022-09-26T08:49:36.778Z,1.60
2022-09-26T08:52:17.361Z,1.50
2022-09-26T08:54:46.214Z,1.45
2022-09-26T08:57:28.473Z,2.03
2022-09-26T08:59:55.255Z,2.60
2022-09-26T09:03:00.139Z,2.60
2022-09-26T09:05:34.067Z,3.20
2022-09-26T09:08:07.972Z,3.00
2022-09-26T09:11:16.412Z,2.63
2022-09-26T09:13:53.460Z,2.63
2022-09-26T09:16:32.120Z,2.90
2022-09-26T09:19:13.741Z,2.97
2022-09-26T09:21:46.148Z,2.90
2022-09-26T09:24:43.495Z,3.42
2022-09-26T09:31:03.822Z,3.10
2022-09-26T09:33:45.317Z,2.77
2022-09-26T09:36:15.625Z,2.53
2022-09-26T09:38:45.864Z,2.28
2022-09-26T09:41:34.745Z,2.47
2022-09-26T09:44:05.531Z,2.20
2022-09-26T09:46:36.501Z,2.10
2022-09-26T09:49:09.263Z,1.60
2022-09-26T09:51:39.418Z,1.60
2022-09-26T09:54:41.137Z,1.63
2022-09-26T09:57:19.364Z,1.45
2022-09-26T10:00:06.430Z,1.67
2022-09-26T10:02:47.553Z,1.20
2022-09-26T10:05:24.886Z,1.55
2022-09-26T10:07:59.038Z,1.40
2022-09-26T10:10:46.478Z,1.30
2022-09-26T10:13:12.989Z,1.30
2022-09-26T10:15:48.406Z,1.85
2022-09-26T10:18:24.662Z,1.52
2022-09-26T10:20:59.382Z,1.33
2022-09-26T10:23:45.401Z,1.45
2022-09-26T10:26:13.686Z,1.40
2022-09-26T10:28:48.329Z,1.60
2022-09-26T10:31:29.197Z,1.80
2022-09-26T10:33:59.269Z,1.60
2022-09-26T10:36:37.037Z,1.60
2022-09-26T10:39:36.261Z,1.60
2022-09-26T10:42:04.614Z,1.70
2022-09-26T10:44:35.071Z,1.40
2022-09-26T10:47:08.181Z,1.50
2022-09-26T10:49:40.041Z,1.40
2022-09-26T10:52:18.895Z,1.30
2022-09-26T10:55:28.341Z,1.35
2022-09-26T10:57:58.622Z,1.40
2022-09-26T11:00:33.784Z,1.30
2022-09-26T11:03:00.637Z,1.20
2022-09-26T11:05:45.599Z,1.23
2022-09-26T11:08:14.059Z,1.17
2022-09-26T11:10:41.952Z,1.40
2022-09-26T11:13:26.223Z,1.45
2022-09-26T11:16:03.002Z,1.52
2022-09-26T11:18:51.681Z,1.20
2022-09-26T11:21:34.236Z,1.33
2022-09-26T11:24:22.758Z,1.30
2022-09-26T11:27:19.255Z,1.17
2022-09-26T11:29:59.873Z,1.35
2022-09-26T11:32:30.060Z,1.20
2022-09-26T11:35:02.467Z,1.50
2022-09-26T11:37:40.740Z,1.30
2022-09-26T11:40:41.279Z,1.15
2022-09-26T11:43:28.931Z,1.25
2022-09-26T11:46:14.871Z,1.30
2022-09-26T11:49:00.864Z,1.10
2022-09-26T11:51:46.176Z,1.20
2022-09-26T11:54:18.525Z,1.20
2022-09-26T11:56:56.872Z,1.10
2022-09-26T12:00:01.614Z,1.40
2022-09-26T12:02:57.402Z,1.10
2022-09-26T12:05:48.958Z,1.20
2022-09-26T12:08:37.492Z,1.40
2022-09-26T12:11:34.842Z,1.15
2022-09-26T12:14:13.870Z,2.03
2022-09-26T12:17:16.006Z,1.30
2022-09-26T12:20:14.045Z,1.20
2022-09-26T12:22:48.925Z,1.27
2022-09-26T12:25:24.080Z,1.25
2022-09-26T12:28:12.772Z,1.43
2022-09-26T12:30:57.775Z,1.40
2022-09-26T12:33:45.419Z,1.17
2022-09-26T12:36:47.644Z,1.10
2022-09-26T12:39:41.838Z,1.30
2022-09-26T12:42:25.478Z,1.20
2022-09-26T12:44:57.823Z,1.30
2022-09-26T12:47:43.306Z,1.42
2022-09-26T12:50:42.129Z,1.38
2022-09-26T12:53:11.566Z,1.00
2022-09-26T12:55:58.375Z,1.10
2022-09-26T12:58:46.725Z,0.90
2022-09-26T13:01:33.637Z,1.10
2022-09-26T13:04:20.843Z,1.10
2022-09-26T13:07:18.236Z,1.10
2022-09-26T13:09:48.281Z,1.00
2022-09-26T13:12:21.136Z,1.08
2022-09-26T13:15:08.001Z,1.00
2022-09-26T13:17:45.996Z,0.70
2022-09-26T13:20:36.598Z,0.95
2022-09-26T13:23:10.940Z,2.37
2022-09-26T13:25:48.746Z,0.80
2022-09-26T13:28:38.237Z,1.00
2022-09-26T13:31:17.007Z,0.70
2022-09-26T13:34:16.898Z,1.08
2022-09-26T13:36:44.824Z,0.70
2022-09-26T13:39:23.260Z,0.98
2022-09-26T13:42:06.544Z,0.85
2022-09-26T13:45:12.571Z,1.27
2022-09-26T13:47:55.394Z,1.15
2022-09-26T13:50:43.657Z,1.00
2022-09-26T13:53:33.394Z,1.17
2022-09-26T13:56:33.939Z,1.10
2022-09-26T13:59:25.802Z,1.00
2022-09-26T14:02:16.818Z,0.80
2022-09-26T14:04:48.152Z,0.93
2022-09-26T14:07:40.933Z,1.17
2022-09-26T14:10:35.879Z,2.00
2022-09-26T14:13:15.230Z,1.48
2022-09-26T14:15:50.400Z,1.40
2022-09-26T14:18:52.155Z,1.47
2022-09-26T14:21:34.038Z,1.63
2022-09-26T14:24:25.522Z,1.45
2022-09-26T14:27:09.900Z,1.20
2022-09-26T14:29:39.220Z,1.00
2022-09-26T14:32:18.996Z,0.90
2022-09-26T14:34:48.586Z,0.90
2022-09-26T14:37:24.519Z,1.20
2022-09-26T14:40:14.093Z,1.00
2022-09-26T14:42:43.555Z,1.10
2022-09-26T14:45:31.075Z,1.00
2022-09-26T14:48:19.223Z,1.20
2022-09-26T14:51:06.238Z,1.20
2022-09-26T14:53:50.532Z,1.38
2022-09-26T14:56:37.186Z,1.30
2022-09-26T14:59:25.338Z,1.00
2022-09-26T15:01:55.052Z,1.05
2022-09-26T15:04:25.890Z,1.08
2022-09-26T15:07:06.024Z,1.17
2022-09-26T15:09:40.681Z,1.17
2022-09-26T15:12:30.458Z,1.00
2022-09-26T15:15:17.161Z,0.88
2022-09-26T15:17:52.922Z,1.20
2022-09-26T15:20:23.958Z,0.95
2022-09-26T15:22:52.663Z,1.10
2022-09-26T15:25:31.839Z,1.20
2022-09-26T15:27:59.199Z,1.02
2022-09-26T15:30:37.481Z,0.90
2022-09-26T15:33:04.242Z,0.93
2022-09-26T15:35:31.713Z,0.80
2022-09-26T15:38:11.538Z,0.80
2022-09-26T15:40:38.415Z,0.80
2022-09-26T15:43:12.265Z,1.33
2022-09-26T15:45:48.282Z,1.33
2022-09-26T15:48:20.883Z,1.27
2022-09-26T15:50:49.370Z,1.03
2022-09-26T15:53:34.086Z,1.02
2022-09-26T15:56:13.031Z,0.90
2022-09-26T15:58:39.294Z,0.90
2022-09-26T16:01:08.890Z,0.90
2022-09-26T16:03:43.134Z,1.00
2022-09-26T16:06:37.698Z,1.20
2022-09-26T16:09:08.814Z,1.10
2022-09-26T16:11:46.211Z,1.30
2022-09-26T16:14:33.363Z,1.27
2022-09-26T16:17:28.299Z,1.60
2022-09-26T16:19:57.709Z,1.35
2022-09-26T16:22:36.690Z,1.70
2022-09-26T16:25:15.206Z,2.15
2022-09-26T16:27:41.736Z,1.60
2022-09-26T16:30:28.672Z,1.70
2022-09-26T16:33:11.058Z,1.80
2022-09-26T16:35:44.717Z,1.55
2022-09-26T16:38:30.894Z,1.40
2022-09-26T16:41:08.646Z,1.52
2022-09-26T16:43:37.508Z,1.60
2022-09-26T16:46:13.428Z,1.90
2022-09-26T16:48:56.270Z,2.22
2022-09-26T16:51:26.033Z,2.13
2022-09-26T16:54:11.785Z,2.50
2022-09-26T16:56:41.342Z,1.50
2022-09-26T16:59:18.336Z,2.40
2022-09-26T17:01:56.389Z,1.90
2022-09-26T17:04:34.467Z,1.80
2022-09-26T17:07:10.027Z,2.05
2022-09-26T17:09:36.456Z,1.70
2022-09-26T17:12:06.353Z,2.03
2022-09-26T17:14:40.625Z,1.45
2022-09-26T17:17:12.910Z,1.30
2022-09-26T17:19:41.170Z,1.20
2022-09-26T17:22:19.150Z,1.20
2022-09-26T17:24:47.981Z,1.20
2022-09-26T17:27:27.048Z,1.48
2022-09-26T17:29:58.798Z,1.55
2022-09-26T17:32:33.744Z,1.40
2022-09-26T17:35:03.794Z,1.23
2022-09-26T17:37:30.316Z,1.48
2022-09-26T17:39:56.887Z,1.40
2022-09-26T17:42:23.783Z,1.30
2022-09-26T17:44:50.491Z,1.30
2022-09-26T17:47:18.901Z,0.80
2022-09-26T17:49:51.601Z,1.20
2022-09-26T17:52:28.854Z,1.20
2022-09-26T17:54:58.500Z,0.90
2022-09-26T17:57:29.895Z,0.80
2022-09-26T17:59:57.238Z,1.30
2022-09-26T18:02:34.348Z,1.15
2022-09-26T18:05:18.101Z,1.23
2022-09-26T18:07:45.881Z,1.00
2022-09-26T18:10:19.426Z,1.33
2022-09-26T18:12:48.505Z,1.20
2022-09-26T18:15:19.471Z,1.20
2022-09-26T18:17:45.873Z,1.48
2022-09-26T18:20:12.305Z,0.98
2022-09-26T18:22:38.718Z,0.90
2022-09-26T18:25:08.229Z,1.20
2022-09-26T18:27:40.424Z,1.23
2022-09-26T18:30:11.667Z,1.30
2022-09-26T18:32:41.592Z,1.30
2022-09-26T18:35:16.249Z,1.60
2022-09-26T18:37:43.492Z,1.63
2022-09-26T18:40:14.683Z,1.60
2022-09-26T18:42:44.299Z,1.92
2022-09-26T18:45:15.076Z,1.73
2022-09-26T18:47:43.228Z,1.60
2022-09-26T18:50:24.331Z,2.00
2022-09-26T18:52:51.223Z,2.28
2022-09-26T18:55:42.482Z,2.00
2022-09-26T18:58:29.383Z,2.10
2022-09-26T19:00:57.719Z,2.38
2022-09-26T19:03:27.481Z,2.10
2022-09-26T19:06:10.449Z,2.28
2022-09-26T19:08:39.868Z,2.17
2022-09-26T19:11:13.136Z,2.35
2022-09-26T19:13:41.066Z,2.17
2022-09-26T19:16:08.329Z,2.50
2022-09-26T19:18:38.464Z,2.17
2022-09-26T19:21:08.057Z,2.60
2022-09-26T19:23:36.421Z,2.00
2022-09-26T19:26:05.640Z,2.03
2022-09-26T19:28:35.339Z,2.23
2022-09-26T19:31:03.470Z,2.60
2022-09-26T19:33:29.981Z,2.38
2022-09-26T19:35:56.494Z,2.53
2022-09-26T19:38:25.557Z,2.40
2022-09-26T19:40:53.543Z,2.30
2022-09-26T19:43:21.198Z,2.90
2022-09-26T19:45:52.872Z,3.22
2022-09-26T19:48:23.430Z,2.80
2022-09-26T19:50:52.341Z,2.80
2022-09-26T19:53:21.033Z,2.73
2022-09-26T19:55:50.151Z,3.25
2022-09-26T19:58:18.422Z,2.88
2022-09-26T20:00:49.325Z,2.63
2022-09-26T20:03:18.302Z,2.97
2022-09-26T20:05:46.450Z,2.53
2022-09-26T20:08:16.608Z,3.20
2022-09-26T20:10:43.290Z,2.70
2022-09-26T20:13:09.630Z,2.92
2022-09-26T20:15:36.099Z,2.38
2022-09-26T20:18:03.008Z,2.30
2022-09-26T20:20:31.558Z,2.80
2022-09-26T20:22:58.519Z,2.20
2022-09-26T20:25:27.685Z,2.17
2022-09-26T20:27:54.634Z,1.90
2022-09-26T20:30:40.233Z,3.50
2022-09-26T20:33:07.058Z,2.92
2022-09-26T20:35:36.872Z,2.00
2022-09-26T20:38:07.549Z,1.80
2022-09-26T20:40:34.839Z,1.17
2022-09-26T20:43:05.856Z,1.33
2022-09-26T20:45:38.345Z,1.80
2022-09-26T20:48:16.525Z,1.70
2022-09-26T20:50:42.901Z,1.70
2022-09-26T20:53:20.717Z,1.40
2022-09-26T20:55:47.889Z,1.73
2022-09-26T20:58:14.685Z,1.38
2022-09-26T21:00:42.400Z,0.80
2022-09-26T21:03:12.091Z,1.00
2022-09-26T21:05:38.959Z,1.00
2022-09-26T21:08:13.399Z,1.50
2022-09-26T21:10:40.020Z,0.90
2022-09-26T21:13:06.381Z,1.20
2022-09-26T21:15:33.435Z,0.93
2022-09-26T21:18:00.976Z,0.80
2022-09-26T21:20:32.375Z,1.00
2022-09-26T21:23:01.672Z,1.10
2022-09-26T21:25:31.199Z,0.65
2022-09-26T21:28:01.401Z,1.00
2022-09-26T21:30:28.961Z,0.93
2022-09-26T21:32:57.757Z,0.90
2022-09-26T21:35:28.781Z,0.85
2022-09-26T21:37:56.896Z,1.00
2022-09-26T21:40:26.998Z,0.93
2022-09-26T21:43:00.175Z,0.95
2022-09-26T21:45:27.742Z,0.87
2022-09-26T21:47:56.833Z,0.90
2022-09-26T21:50:27.557Z,0.90
2022-09-26T21:52:59.479Z,1.10
2022-09-26T21:55:33.503Z,1.15
2022-09-26T21:58:05.408Z,1.10
2022-09-26T22:00:31.757Z,1.02
2022-09-26T22:02:59.551Z,0.90
2022-09-26T22:05:26.012Z,0.70
2022-09-26T22:07:52.473Z,0.60
2022-09-26T22:10:19.210Z,0.60
2022-09-26T22:12:45.568Z,0.80
2022-09-26T22:15:11.910Z,0.60
2022-09-26T22:17:38.389Z,0.60
2022-09-26T22:20:05.437Z,0.73
2022-09-26T22:22:31.838Z,0.93
2022-09-26T22:25:02.517Z,0.70
2022-09-26T22:27:28.993Z,0.68
2022-09-26T22:29:55.360Z,0.80
2022-09-26T22:32:22.088Z,0.80
2022-09-26T22:34:49.118Z,0.70
2022-09-26T22:37:15.984Z,0.50
2022-09-26T22:39:42.348Z,0.60
2022-09-26T22:42:08.726Z,0.77
2022-09-26T22:44:35.743Z,0.65
2022-09-26T22:47:02.103Z,0.77
2022-09-26T22:49:28.652Z,0.70
2022-09-26T22:51:55.041Z,0.70
2022-09-26T22:54:21.543Z,0.70
2022-09-26T22:56:47.996Z,0.70
2022-09-26T22:59:15.432Z,0.83
2022-09-26T23:01:41.910Z,0.80
2022-09-26T23:04:08.312Z,0.65
2022-09-26T23:06:34.671Z,0.80
2022-09-26T23:09:01.035Z,0.70
2022-09-26T23:11:27.930Z,0.80
2022-09-26T23:13:54.393Z,0.80
2022-09-26T23:16:23.643Z,0.90
2022-09-26T23:18:51.401Z,0.68
2022-09-26T23:21:20.578Z,0.80
2022-09-26T23:23:52.750Z,0.60
2022-09-26T23:26:23.652Z,0.80
2022-09-26T23:28:51.617Z,0.50
2022-09-26T23:31:18.513Z,0.60
2022-09-26T23:33:45.239Z,0.65
2022-09-26T23:36:12.023Z,0.57
2022-09-26T23:38:39.564Z,0.60
2022-09-26T23:41:07.345Z,0.70
2022-09-26T23:43:33.958Z,0.60
2022-09-26T23:46:00.488Z,1.05
2022-09-26T23:48:27.016Z,0.60
2022-09-26T23:50:53.660Z,0.88
2022-09-26T23:53:22.109Z,1.10
2022-09-26T23:55:48.630Z,1.00
2022-09-26T23:58:15.076Z,1.20
